createdAt,value
2017-10-14T00:04:48.981Z,20.50
2017-10-14T00:09:51.913Z,19.40
2017-10-14T00:14:54.982Z,21.17
2017-10-14T00:19:58.236Z,20.63
2017-10-14T00:25:01.258Z,21.83
2017-10-14T00:30:04.232Z,19.43
2017-10-14T00:35:07.461Z,20.30
2017-10-14T00:40:11.345Z,18.27
2017-10-14T00:45:14.439Z,19.20
2017-10-14T00:50:18.095Z,19.70
2017-10-14T00:55:22.046Z,19.70
2017-10-14T01:00:25.648Z,19.10
2017-10-14T01:05:28.796Z,18.47
2017-10-14T01:10:32.749Z,19.37
2017-10-14T01:15:35.904Z,18.63
2017-10-14T01:20:39.268Z,19.23
2017-10-14T01:25:42.509Z,17.50
2017-10-14T01:30:45.625Z,18.57
2017-10-14T01:35:48.925Z,17.47
2017-10-14T01:40:52.736Z,17.67
2017-10-14T01:45:55.837Z,18.40
2017-10-14T01:50:59.075Z,18.30
2017-10-14T01:56:02.446Z,19.37
2017-10-14T02:01:05.308Z,17.30
2017-10-14T02:06:08.893Z,17.40
2017-10-14T02:11:11.911Z,18.30
2017-10-14T02:16:19.794Z,17.40
2017-10-14T02:21:25.716Z,17.50
2017-10-14T02:26:33.031Z,18.67
2017-10-14T02:31:37.556Z,19.67
2017-10-14T02:36:40.804Z,18.97
2017-10-14T02:41:47.095Z,18.63
2017-10-14T02:46:52.361Z,19.43
2017-10-14T02:51:57.837Z,20.93
2017-10-14T02:57:05.473Z,19.63
2017-10-14T03:02:08.863Z,19.50
2017-10-14T03:07:12.721Z,19.00
2017-10-14T03:12:15.624Z,18.30
2017-10-14T03:17:20.372Z,19.17
2017-10-14T03:22:26.360Z,17.53
2017-10-14T03:27:32.327Z,17.23
2017-10-14T03:32:39.196Z,18.07
2017-10-14T03:37:43.825Z,17.83
2017-10-14T03:42:48.147Z,18.00
2017-10-14T03:47:57.076Z,17.17
2017-10-14T03:53:05.407Z,18.33
2017-10-14T03:58:09.036Z,17.73
2017-10-14T04:03:14.172Z,16.80
2017-10-14T04:08:16.936Z,17.00
2017-10-14T04:13:23.280Z,17.43
2017-10-14T04:18:27.933Z,18.30
2017-10-14T04:23:33.262Z,17.50
2017-10-14T04:28:36.461Z,18.87
2017-10-14T04:33:39.685Z,19.40
2017-10-14T04:38:46.978Z,19.60
2017-10-14T04:43:59.122Z,18.90
2017-10-14T04:49:04.568Z,21.40
2017-10-14T04:54:09.159Z,20.33
2017-10-14T04:59:23.082Z,21.80
2017-10-14T05:04:26.124Z,23.37
2017-10-14T05:09:33.893Z,23.20
2017-10-14T05:14:37.553Z,23.20
2017-10-14T05:19:42.613Z,24.67
2017-10-14T05:24:44.903Z,24.80
2017-10-14T05:29:50.200Z,25.37
2017-10-14T05:34:52.174Z,25.37
2017-10-14T05:39:54.064Z,26.37
2017-10-14T05:44:55.983Z,27.27
2017-10-14T05:49:57.904Z,26.80
2017-10-14T05:55:00.529Z,26.53
2017-10-14T06:00:06.977Z,26.90
2017-10-14T06:05:09.064Z,26.60
2017-10-14T06:10:10.991Z,27.27
2017-10-14T06:15:13.550Z,26.30
2017-10-14T06:20:15.496Z,25.43
2017-10-14T06:25:17.416Z,25.60
2017-10-14T06:30:20.606Z,25.73
2017-10-14T06:35:25.588Z,25.63
2017-10-14T06:40:28.936Z,24.03
2017-10-14T06:45:32.027Z,25.10
2017-10-14T06:50:36.635Z,23.10
2017-10-14T06:55:41.386Z,24.17
2017-10-14T07:00:44.372Z,21.90
2017-10-14T07:05:46.306Z,23.23
2017-10-14T07:10:48.964Z,22.23
2017-10-14T07:15:50.876Z,22.70
2017-10-14T07:20:52.800Z,24.10
2017-10-14T07:25:55.464Z,21.93
2017-10-14T07:30:58.086Z,22.33
2017-10-14T07:35:59.973Z,20.70
2017-10-14T07:41:02.672Z,21.23
2017-10-14T07:46:04.595Z,21.03
2017-10-14T07:51:07.345Z,19.60
2017-10-14T07:56:09.310Z,21.27
2017-10-14T08:01:11.999Z,20.20
2017-10-14T08:06:13.920Z,18.10
2017-10-14T08:11:16.648Z,18.73
2017-10-14T08:16:18.547Z,16.47
2017-10-14T08:21:20.442Z,16.97
2017-10-14T08:26:22.349Z,16.20
2017-10-14T08:31:24.386Z,15.50
2017-10-14T08:36:27.404Z,12.80
2017-10-14T08:41:30.860Z,11.80
2017-10-14T08:46:32.811Z,12.00
2017-10-14T08:51:34.856Z,12.27
2017-10-14T08:56:40.824Z,10.73
2017-10-14T09:01:43.116Z,11.20
2017-10-14T09:06:45.152Z,10.23
2017-10-14T09:11:47.291Z,10.70
2017-10-14T09:16:50.061Z,8.10
2017-10-14T09:21:52.063Z,8.67
2017-10-14T09:27:00.498Z,7.50
2017-10-14T09:32:02.689Z,8.27
2017-10-14T09:37:04.793Z,6.97
2017-10-14T09:42:07.537Z,6.27
2017-10-14T09:47:11.575Z,5.37
2017-10-14T09:52:14.602Z,5.90
2017-10-14T09:57:18.579Z,4.70
2017-10-14T10:02:20.647Z,5.03
2017-10-14T10:07:27.052Z,4.30
2017-10-14T10:12:35.254Z,4.23
2017-10-14T10:17:37.565Z,4.00
2017-10-14T10:22:39.565Z,4.17
2017-10-14T10:27:44.030Z,4.20
2017-10-14T10:32:46.406Z,4.30
2017-10-14T10:37:49.131Z,3.50
2017-10-14T10:42:51.836Z,3.23
2017-10-14T10:47:53.759Z,2.90
2017-10-14T10:52:55.778Z,3.30
2017-10-14T10:57:58.726Z,5.30
2017-10-14T11:03:01.745Z,3.87
2017-10-14T11:13:13.168Z,3.10
2017-10-14T11:18:15.590Z,3.03
2017-10-14T11:23:17.675Z,2.90
2017-10-14T11:28:19.619Z,3.50
2017-10-14T11:33:22.371Z,3.33
2017-10-14T11:38:25.521Z,3.30
2017-10-14T11:43:27.795Z,2.60
2017-10-14T11:48:32.836Z,2.57
2017-10-14T11:53:38.064Z,2.77
2017-10-14T11:58:40.013Z,2.63
2017-10-14T12:03:42.949Z,3.00
2017-10-14T12:08:45.427Z,2.90
2017-10-14T12:13:47.487Z,2.83
2017-10-14T12:18:49.967Z,2.50
2017-10-14T12:23:51.851Z,2.90
2017-10-14T12:28:53.756Z,3.87
2017-10-14T12:33:55.671Z,3.37
2017-10-14T12:38:57.683Z,3.23
2017-10-14T12:43:59.728Z,3.13
2017-10-14T12:49:01.669Z,3.20
2017-10-14T12:54:03.627Z,3.70
2017-10-14T12:59:05.520Z,3.90
2017-10-14T13:04:07.409Z,3.20
2017-10-14T13:09:15.769Z,3.10
2017-10-14T13:14:17.710Z,2.90
2017-10-14T13:19:20.432Z,3.50
2017-10-14T13:24:23.261Z,3.50
2017-10-14T13:29:25.928Z,3.33
2017-10-14T13:34:28.467Z,3.40
2017-10-14T13:39:30.550Z,2.83
2017-10-14T13:44:35.017Z,3.20
2017-10-14T13:49:41.085Z,4.00
2017-10-14T13:54:43.037Z,3.13
2017-10-14T13:59:45.911Z,3.70
2017-10-14T14:04:48.543Z,3.57
2017-10-14T14:09:50.509Z,3.43
2017-10-14T14:14:52.509Z,4.13
2017-10-14T14:19:58.966Z,3.90
2017-10-14T14:25:01.835Z,3.57
2017-10-14T14:30:04.674Z,3.03
2017-10-14T14:35:08.903Z,3.07
2017-10-14T14:40:13.259Z,3.43
2017-10-14T14:45:15.282Z,3.30
2017-10-14T14:50:24.042Z,3.63
2017-10-14T14:55:26.495Z,2.63
2017-10-14T15:00:35.053Z,3.03
2017-10-14T15:05:40.101Z,2.90
2017-10-14T15:15:51.559Z,3.20
2017-10-14T15:20:56.466Z,3.00
2017-10-14T15:25:58.739Z,3.30
2017-10-14T15:31:01.785Z,3.50
2017-10-14T15:36:04.281Z,64.33
2017-10-14T15:41:06.302Z,14.40
2017-10-14T15:46:08.278Z,17.23
2017-10-14T15:51:10.259Z,6.43
2017-10-14T15:56:13.882Z,8.00
2017-10-14T16:01:16.670Z,8.33
2017-10-14T16:06:19.171Z,4.80
2017-10-14T16:11:22.581Z,6.30
2017-10-14T16:16:26.788Z,4.57
2017-10-14T16:21:29.269Z,4.50
2017-10-14T16:31:47.144Z,3.73
2017-10-14T16:36:54.676Z,3.93
2017-10-14T16:42:13.749Z,4.30
2017-10-14T16:47:23.051Z,4.53
2017-10-14T16:52:26.359Z,4.63
2017-10-14T16:57:32.528Z,4.93
2017-10-14T17:02:40.855Z,5.00
2017-10-14T17:07:44.501Z,5.23
2017-10-14T17:12:53.662Z,4.50
2017-10-14T17:17:56.572Z,5.40
2017-10-14T17:23:02.134Z,4.80
2017-10-14T17:28:04.896Z,6.53
2017-10-14T17:33:08.377Z,5.63
2017-10-14T17:38:19.463Z,6.73
2017-10-14T17:43:38.406Z,7.47
2017-10-14T17:48:42.414Z,7.70
2017-10-14T17:53:47.485Z,7.57
2017-10-14T17:58:51.293Z,7.10
2017-10-14T18:03:54.548Z,7.77
2017-10-14T18:08:57.029Z,9.27
2017-10-14T18:14:07.099Z,7.93
2017-10-14T18:19:09.409Z,7.80
2017-10-14T18:24:12.594Z,8.73
2017-10-14T18:29:15.888Z,8.40
2017-10-14T18:34:19.827Z,8.50
2017-10-14T18:39:24.600Z,8.00
2017-10-14T18:44:28.892Z,8.23
2017-10-14T18:49:31.704Z,8.27
2017-10-14T18:54:35.664Z,9.40
2017-10-14T18:59:43.446Z,8.50
2017-10-14T19:04:51.945Z,8.33
2017-10-14T19:10:04.566Z,8.13
2017-10-14T19:15:07.284Z,10.23
2017-10-14T19:20:10.336Z,11.53
2017-10-14T19:25:15.075Z,11.23
2017-10-14T19:30:17.981Z,12.47
2017-10-14T19:35:20.944Z,8.90
2017-10-14T19:40:24.413Z,11.10
2017-10-14T19:45:27.606Z,11.60
2017-10-14T19:50:30.576Z,17.57
2017-10-14T19:55:34.112Z,12.37
2017-10-14T20:00:40.586Z,14.80
2017-10-14T20:05:43.340Z,14.63
2017-10-14T20:10:47.256Z,14.20
2017-10-14T20:15:50.357Z,13.63
2017-10-14T20:20:53.307Z,13.63
2017-10-14T20:25:56.476Z,14.67
2017-10-14T20:30:59.633Z,14.10
2017-10-14T20:36:02.543Z,14.37
2017-10-14T20:41:06.042Z,15.67
2017-10-14T20:46:08.896Z,14.70
2017-10-14T20:51:11.647Z,15.23
2017-10-14T20:56:15.655Z,16.37
2017-10-14T21:01:22.097Z,15.20
2017-10-14T21:06:28.061Z,16.97
2017-10-14T21:11:30.967Z,16.17
2017-10-14T21:16:33.816Z,15.13
2017-10-14T21:21:38.172Z,15.80
2017-10-14T21:26:42.179Z,15.70
2017-10-14T21:31:47.085Z,16.50
2017-10-14T21:36:51.725Z,14.80
2017-10-14T21:41:55.029Z,15.13
2017-10-14T21:46:58.537Z,16.00
2017-10-14T21:52:01.393Z,13.93
2017-10-14T21:57:05.101Z,14.20
2017-10-14T22:02:10.814Z,13.80
2017-10-14T22:07:14.599Z,17.20
2017-10-14T22:12:19.185Z,18.20
2017-10-14T22:17:23.131Z,18.43
2017-10-14T22:22:26.063Z,17.23
2017-10-14T22:27:31.284Z,18.60
2017-10-14T22:32:34.135Z,16.63
2017-10-14T22:37:37.089Z,16.70
2017-10-14T22:42:40.501Z,15.47
2017-10-14T22:47:43.474Z,16.73
2017-10-14T22:52:46.516Z,19.90
2017-10-14T22:57:57.162Z,18.03
2017-10-14T23:03:01.368Z,21.37
2017-10-14T23:08:05.510Z,18.00
2017-10-14T23:13:08.308Z,17.87
2017-10-14T23:18:11.317Z,17.23
2017-10-14T23:23:15.263Z,18.83
2017-10-14T23:28:19.112Z,23.03
2017-10-14T23:33:22.968Z,19.90
2017-10-14T23:38:26.714Z,19.10
2017-10-14T23:43:29.629Z,16.47
2017-10-14T23:48:32.530Z,23.83
2017-10-14T23:53:35.502Z,24.73
2017-10-14T23:58:39.037Z,22.50
